sensor_id;sensor_type;location;lat;lon;timestamp;P1;durP1;ratioP1;P2;durP2;ratioP2
72109;SDS011;59983;52.010;5.420;2023-05-10T00:00:00;44.15;;;26.73;;
72109;SDS011;59983;52.010;5.420;2023-05-10T00:02:27;43.72;;;25.55;;
72109;SDS011;59983;52.010;5.420;2023-05-10T00:04:53;40.00;;;25.30;;
72109;SDS011;59983;52.010;5.420;2023-05-10T00:07:20;40.97;;;25.30;;
72109;SDS011;59983;52.010;5.420;2023-05-10T00:09:47;47.67;;;26.42;;
72109;SDS011;59983;52.010;5.420;2023-05-10T00:12:13;42.72;;;24.13;;
72109;SDS011;59983;52.010;5.420;2023-05-10T00:14:40;39.50;;;25.17;;
72109;SDS011;59983;52.010;5.420;2023-05-10T00:17:06;45.30;;;26.80;;
72109;SDS011;59983;52.010;5.420;2023-05-10T00:19:33;45.70;;;26.93;;
72109;SDS011;59983;52.010;5.420;2023-05-10T00:21:59;41.28;;;26.38;;
72109;SDS011;59983;52.010;5.420;2023-05-10T00:24:26;44.72;;;26.27;;
72109;SDS011;59983;52.010;5.420;2023-05-10T00:26:53;43.50;;;26.42;;
72109;SDS011;59983;52.010;5.420;2023-05-10T00:29:19;45.28;;;27.20;;
72109;SDS011;59983;52.010;5.420;2023-05-10T00:31:45;50.20;;;26.37;;
72109;SDS011;59983;52.010;5.420;2023-05-10T00:34:12;42.13;;;25.58;;
72109;SDS011;59983;52.010;5.420;2023-05-10T00:36:38;49.55;;;25.70;;
72109;SDS011;59983;52.010;5.420;2023-05-10T00:39:05;45.97;;;24.98;;
72109;SDS011;59983;52.010;5.420;2023-05-10T00:41:32;41.15;;;25.02;;
72109;SDS011;59983;52.010;5.420;2023-05-10T00:43:59;39.20;;;24.20;;
72109;SDS011;59983;52.010;5.420;2023-05-10T00:46:25;38.20;;;24.70;;
72109;SDS011;59983;52.010;5.420;2023-05-10T00:48:53;47.83;;;25.30;;
72109;SDS011;59983;52.010;5.420;2023-05-10T00:51:19;43.25;;;26.00;;
72109;SDS011;59983;52.010;5.420;2023-05-10T00:53:46;49.30;;;27.88;;
72109;SDS011;59983;52.010;5.420;2023-05-10T00:56:14;43.67;;;26.83;;
72109;SDS011;59983;52.010;5.420;2023-05-10T00:58:42;37.60;;;23.60;;
72109;SDS011;59983;52.010;5.420;2023-05-10T01:01:08;38.97;;;23.42;;
72109;SDS011;59983;52.010;5.420;2023-05-10T01:03:36;44.42;;;24.42;;
72109;SDS011;59983;52.010;5.420;2023-05-10T01:06:02;39.42;;;23.65;;
72109;SDS011;59983;52.010;5.420;2023-05-10T01:08:29;50.20;;;25.47;;
72109;SDS011;59983;52.010;5.420;2023-05-10T01:10:56;39.92;;;23.77;;
72109;SDS011;59983;52.010;5.420;2023-05-10T01:13:28;40.92;;;24.88;;
72109;SDS011;59983;52.010;5.420;2023-05-10T01:15:56;46.85;;;24.38;;
72109;SDS011;59983;52.010;5.420;2023-05-10T01:18:23;47.90;;;25.60;;
72109;SDS011;59983;52.010;5.420;2023-05-10T01:20:57;51.40;;;24.97;;
72109;SDS011;59983;52.010;5.420;2023-05-10T01:24:05;57.50;;;28.27;;
72109;SDS011;59983;52.010;5.420;2023-05-10T01:27:19;58.90;;;26.00;;
72109;SDS011;59983;52.010;5.420;2023-05-10T01:38:12;68.32;;;30.25;;
72109;SDS011;59983;52.010;5.420;2023-05-10T01:40:44;66.35;;;30.38;;
72109;SDS011;59983;52.010;5.420;2023-05-10T01:43:17;75.03;;;31.50;;
72109;SDS011;59983;52.010;5.420;2023-05-10T01:48:51;72.40;;;30.97;;
72109;SDS011;59983;52.010;5.420;2023-05-10T01:51:21;73.53;;;30.45;;
72109;SDS011;59983;52.010;5.420;2023-05-10T01:53:56;76.40;;;32.60;;
72109;SDS011;59983;52.010;5.420;2023-05-10T01:56:26;75.97;;;30.98;;
72109;SDS011;59983;52.010;5.420;2023-05-10T01:58:55;76.22;;;32.13;;
72109;SDS011;59983;52.010;5.420;2023-05-10T02:01:23;65.10;;;29.70;;
72109;SDS011;59983;52.010;5.420;2023-05-10T02:03:52;68.53;;;31.08;;
72109;SDS011;59983;52.010;5.420;2023-05-10T02:06:21;68.72;;;31.58;;
72109;SDS011;59983;52.010;5.420;2023-05-10T02:08:50;77.10;;;32.22;;
72109;SDS011;59983;52.010;5.420;2023-05-10T02:11:18;66.05;;;31.02;;
72109;SDS011;59983;52.010;5.420;2023-05-10T02:13:47;67.70;;;32.27;;
72109;SDS011;59983;52.010;5.420;2023-05-10T02:16:16;71.60;;;32.63;;
72109;SDS011;59983;52.010;5.420;2023-05-10T02:18:44;77.07;;;32.78;;
72109;SDS011;59983;52.010;5.420;2023-05-10T02:21:12;70.40;;;32.67;;
72109;SDS011;59983;52.010;5.420;2023-05-10T02:23:40;69.47;;;32.20;;
72109;SDS011;59983;52.010;5.420;2023-05-10T02:26:08;80.10;;;33.73;;
72109;SDS011;59983;52.010;5.420;2023-05-10T02:28:36;68.63;;;32.63;;
72109;SDS011;59983;52.010;5.420;2023-05-10T02:31:05;66.78;;;31.60;;
72109;SDS011;59983;52.010;5.420;2023-05-10T02:33:33;68.22;;;30.55;;
72109;SDS011;59983;52.010;5.420;2023-05-10T02:36:01;68.53;;;32.15;;
72109;SDS011;59983;52.010;5.420;2023-05-10T02:38:29;76.87;;;32.43;;
72109;SDS011;59983;52.010;5.420;2023-05-10T02:40:58;65.50;;;31.85;;
72109;SDS011;59983;52.010;5.420;2023-05-10T02:43:25;60.17;;;31.05;;
72109;SDS011;59983;52.010;5.420;2023-05-10T02:45:54;65.30;;;34.08;;
72109;SDS011;59983;52.010;5.420;2023-05-10T02:48:20;62.53;;;32.83;;
72109;SDS011;59983;52.010;5.420;2023-05-10T02:50:47;66.77;;;34.53;;
72109;SDS011;59983;52.010;5.420;2023-05-10T02:53:30;74.82;;;35.90;;
72109;SDS011;59983;52.010;5.420;2023-05-10T02:55:58;74.68;;;36.03;;
72109;SDS011;59983;52.010;5.420;2023-05-10T02:58:27;73.40;;;35.25;;
72109;SDS011;59983;52.010;5.420;2023-05-10T03:00:54;73.40;;;36.03;;
72109;SDS011;59983;52.010;5.420;2023-05-10T03:03:20;76.13;;;35.17;;
72109;SDS011;59983;52.010;5.420;2023-05-10T03:05:47;75.97;;;34.47;;
72109;SDS011;59983;52.010;5.420;2023-05-10T03:08:13;78.40;;;35.90;;
72109;SDS011;59983;52.010;5.420;2023-05-10T03:14:02;69.70;;;33.92;;
72109;SDS011;59983;52.010;5.420;2023-05-10T03:16:41;70.60;;;33.27;;
72109;SDS011;59983;52.010;5.420;2023-05-10T03:22:24;72.60;;;32.50;;
72109;SDS011;59983;52.010;5.420;2023-05-10T03:25:05;66.97;;;31.90;;
72109;SDS011;59983;52.010;5.420;2023-05-10T03:27:35;73.97;;;32.65;;
72109;SDS011;59983;52.010;5.420;2023-05-10T03:30:02;66.27;;;32.60;;
72109;SDS011;59983;52.010;5.420;2023-05-10T03:32:31;75.60;;;35.10;;
72109;SDS011;59983;52.010;5.420;2023-05-10T03:35:00;69.53;;;34.47;;
72109;SDS011;59983;52.010;5.420;2023-05-10T03:37:28;65.35;;;33.50;;
72109;SDS011;59983;52.010;5.420;2023-05-10T03:39:54;72.15;;;34.03;;
72109;SDS011;59983;52.010;5.420;2023-05-10T03:42:21;73.07;;;33.40;;
72109;SDS011;59983;52.010;5.420;2023-05-10T03:44:47;68.50;;;32.42;;
72109;SDS011;59983;52.010;5.420;2023-05-10T03:47:15;69.43;;;32.45;;
72109;SDS011;59983;52.010;5.420;2023-05-10T03:49:42;62.10;;;31.10;;
72109;SDS011;59983;52.010;5.420;2023-05-10T03:52:08;65.05;;;31.38;;
72109;SDS011;59983;52.010;5.420;2023-05-10T03:54:35;66.10;;;30.23;;
72109;SDS011;59983;52.010;5.420;2023-05-10T03:57:01;64.10;;;29.58;;
72109;SDS011;59983;52.010;5.420;2023-05-10T03:59:29;72.60;;;30.63;;
72109;SDS011;59983;52.010;5.420;2023-05-10T04:01:56;54.65;;;27.27;;
72109;SDS011;59983;52.010;5.420;2023-05-10T04:04:22;58.15;;;28.60;;
72109;SDS011;59983;52.010;5.420;2023-05-10T04:06:49;63.47;;;26.90;;
72109;SDS011;59983;52.010;5.420;2023-05-10T04:09:16;67.65;;;27.38;;
72109;SDS011;59983;52.010;5.420;2023-05-10T04:11:43;57.53;;;26.45;;
72109;SDS011;59983;52.010;5.420;2023-05-10T04:14:09;59.67;;;27.08;;
72109;SDS011;59983;52.010;5.420;2023-05-10T04:16:36;61.38;;;27.65;;
72109;SDS011;59983;52.010;5.420;2023-05-10T04:19:02;66.17;;;29.17;;
72109;SDS011;59983;52.010;5.420;2023-05-10T04:21:29;73.05;;;27.90;;
72109;SDS011;59983;52.010;5.420;2023-05-10T04:23:56;74.00;;;30.10;;
72109;SDS011;59983;52.010;5.420;2023-05-10T04:26:23;72.78;;;28.88;;
72109;SDS011;59983;52.010;5.420;2023-05-10T04:28:51;79.95;;;29.20;;
72109;SDS011;59983;52.010;5.420;2023-05-10T04:31:17;75.03;;;30.20;;
72109;SDS011;59983;52.010;5.420;2023-05-10T04:33:44;72.55;;;28.10;;
72109;SDS011;59983;52.010;5.420;2023-05-10T04:36:10;69.32;;;30.50;;
72109;SDS011;59983;52.010;5.420;2023-05-10T04:38:37;79.40;;;29.42;;
72109;SDS011;59983;52.010;5.420;2023-05-10T04:41:04;66.68;;;31.48;;
72109;SDS011;59983;52.010;5.420;2023-05-10T04:43:34;73.63;;;31.97;;
72109;SDS011;59983;52.010;5.420;2023-05-10T04:46:03;77.22;;;30.73;;
72109;SDS011;59983;52.010;5.420;2023-05-10T04:48:30;71.93;;;31.25;;
72109;SDS011;59983;52.010;5.420;2023-05-10T04:50:57;70.60;;;30.98;;
72109;SDS011;59983;52.010;5.420;2023-05-10T04:53:23;63.10;;;29.35;;
72109;SDS011;59983;52.010;5.420;2023-05-10T04:55:50;66.33;;;30.00;;
72109;SDS011;59983;52.010;5.420;2023-05-10T04:58:16;68.50;;;29.88;;
72109;SDS011;59983;52.010;5.420;2023-05-10T05:00:43;66.72;;;30.55;;
72109;SDS011;59983;52.010;5.420;2023-05-10T05:03:10;67.43;;;30.33;;
72109;SDS011;59983;52.010;5.420;2023-05-10T05:05:37;60.17;;;31.20;;
72109;SDS011;59983;52.010;5.420;2023-05-10T05:08:03;67.00;;;29.53;;
72109;SDS011;59983;52.010;5.420;2023-05-10T05:10:30;63.00;;;30.13;;
72109;SDS011;59983;52.010;5.420;2023-05-10T05:12:56;61.03;;;28.90;;
72109;SDS011;59983;52.010;5.420;2023-05-10T05:15:23;62.05;;;30.73;;
72109;SDS011;59983;52.010;5.420;2023-05-10T05:17:49;62.35;;;29.38;;
72109;SDS011;59983;52.010;5.420;2023-05-10T05:20:16;62.37;;;30.00;;
72109;SDS011;59983;52.010;5.420;2023-05-10T05:22:43;69.43;;;30.10;;
72109;SDS011;59983;52.010;5.420;2023-05-10T05:25:10;76.70;;;33.72;;
72109;SDS011;59983;52.010;5.420;2023-05-10T05:27:37;74.20;;;34.10;;
72109;SDS011;59983;52.010;5.420;2023-05-10T05:30:04;72.82;;;33.00;;
72109;SDS011;59983;52.010;5.420;2023-05-10T05:32:31;68.00;;;32.63;;
72109;SDS011;59983;52.010;5.420;2023-05-10T05:34:58;70.20;;;30.05;;
72109;SDS011;59983;52.010;5.420;2023-05-10T05:37:24;76.97;;;33.38;;
72109;SDS011;59983;52.010;5.420;2023-05-10T05:39:51;81.25;;;33.35;;
72109;SDS011;59983;52.010;5.420;2023-05-10T05:42:18;88.93;;;34.55;;
72109;SDS011;59983;52.010;5.420;2023-05-10T05:44:45;91.07;;;36.50;;
72109;SDS011;59983;52.010;5.420;2023-05-10T05:47:12;87.03;;;34.88;;
72109;SDS011;59983;52.010;5.420;2023-05-10T05:49:38;80.90;;;34.83;;
72109;SDS011;59983;52.010;5.420;2023-05-10T05:52:05;81.60;;;33.75;;
72109;SDS011;59983;52.010;5.420;2023-05-10T05:54:32;86.75;;;34.75;;
72109;SDS011;59983;52.010;5.420;2023-05-10T05:56:58;78.00;;;34.53;;
72109;SDS011;59983;52.010;5.420;2023-05-10T05:59:27;90.53;;;36.15;;
72109;SDS011;59983;52.010;5.420;2023-05-10T06:01:54;90.32;;;36.22;;
72109;SDS011;59983;52.010;5.420;2023-05-10T06:04:20;78.10;;;34.08;;
72109;SDS011;59983;52.010;5.420;2023-05-10T06:06:47;80.13;;;34.55;;
72109;SDS011;59983;52.010;5.420;2023-05-10T06:09:13;82.07;;;36.77;;
72109;SDS011;59983;52.010;5.420;2023-05-10T06:11:40;84.35;;;37.80;;
72109;SDS011;59983;52.010;5.420;2023-05-10T06:14:07;80.25;;;37.38;;
72109;SDS011;59983;52.010;5.420;2023-05-10T06:16:34;85.53;;;39.40;;
72109;SDS011;59983;52.010;5.420;2023-05-10T06:19:01;80.55;;;36.63;;
72109;SDS011;59983;52.010;5.420;2023-05-10T06:21:28;79.63;;;36.50;;
72109;SDS011;59983;52.010;5.420;2023-05-10T06:23:56;71.78;;;36.00;;
72109;SDS011;59983;52.010;5.420;2023-05-10T06:26:23;82.25;;;36.83;;
72109;SDS011;59983;52.010;5.420;2023-05-10T06:28:49;83.60;;;40.08;;
72109;SDS011;59983;52.010;5.420;2023-05-10T06:31:16;82.20;;;36.88;;
72109;SDS011;59983;52.010;5.420;2023-05-10T06:33:42;80.03;;;37.30;;
72109;SDS011;59983;52.010;5.420;2023-05-10T06:36:09;78.95;;;38.63;;
72109;SDS011;59983;52.010;5.420;2023-05-10T06:38:35;83.97;;;35.60;;
72109;SDS011;59983;52.010;5.420;2023-05-10T06:41:02;73.43;;;35.22;;
72109;SDS011;59983;52.010;5.420;2023-05-10T06:43:29;71.70;;;34.25;;
72109;SDS011;59983;52.010;5.420;2023-05-10T06:45:55;89.60;;;35.80;;
72109;SDS011;59983;52.010;5.420;2023-05-10T06:48:22;74.07;;;34.60;;
72109;SDS011;59983;52.010;5.420;2023-05-10T06:50:49;70.55;;;34.50;;
72109;SDS011;59983;52.010;5.420;2023-05-10T06:53:15;74.05;;;34.90;;
72109;SDS011;59983;52.010;5.420;2023-05-10T06:55:42;72.63;;;34.63;;
72109;SDS011;59983;52.010;5.420;2023-05-10T06:58:08;66.27;;;31.83;;
72109;SDS011;59983;52.010;5.420;2023-05-10T07:00:35;66.35;;;31.30;;
72109;SDS011;59983;52.010;5.420;2023-05-10T07:03:05;64.65;;;30.35;;
72109;SDS011;59983;52.010;5.420;2023-05-10T07:05:32;63.45;;;31.55;;
72109;SDS011;59983;52.010;5.420;2023-05-10T07:07:58;56.97;;;28.80;;
72109;SDS011;59983;52.010;5.420;2023-05-10T07:10:25;53.87;;;28.27;;
72109;SDS011;59983;52.010;5.420;2023-05-10T07:12:52;50.67;;;26.63;;
72109;SDS011;59983;52.010;5.420;2023-05-10T07:15:19;50.97;;;25.90;;
72109;SDS011;59983;52.010;5.420;2023-05-10T07:17:46;42.97;;;23.30;;
72109;SDS011;59983;52.010;5.420;2023-05-10T07:20:12;44.13;;;23.55;;
72109;SDS011;59983;52.010;5.420;2023-05-10T07:22:39;39.10;;;23.33;;
72109;SDS011;59983;52.010;5.420;2023-05-10T07:25:06;41.08;;;21.08;;
72109;SDS011;59983;52.010;5.420;2023-05-10T07:27:32;32.97;;;19.95;;
72109;SDS011;59983;52.010;5.420;2023-05-10T07:29:59;38.47;;;21.33;;
72109;SDS011;59983;52.010;5.420;2023-05-10T07:32:26;37.10;;;18.90;;
72109;SDS011;59983;52.010;5.420;2023-05-10T07:34:53;25.07;;;16.23;;
72109;SDS011;59983;52.010;5.420;2023-05-10T07:37:20;22.23;;;15.43;;
72109;SDS011;59983;52.010;5.420;2023-05-10T07:39:46;22.63;;;14.68;;
72109;SDS011;59983;52.010;5.420;2023-05-10T07:42:13;21.73;;;13.85;;
72109;SDS011;59983;52.010;5.420;2023-05-10T07:44:39;16.00;;;12.02;;
72109;SDS011;59983;52.010;5.420;2023-05-10T07:47:06;16.53;;;12.03;;
72109;SDS011;59983;52.010;5.420;2023-05-10T07:49:32;22.17;;;12.40;;
72109;SDS011;59983;52.010;5.420;2023-05-10T07:51:58;14.80;;;11.45;;
72109;SDS011;59983;52.010;5.420;2023-05-10T07:54:25;14.45;;;11.27;;
72109;SDS011;59983;52.010;5.420;2023-05-10T07:56:52;10.10;;;9.05;;
72109;SDS011;59983;52.010;5.420;2023-05-10T07:59:18;11.47;;;8.90;;
72109;SDS011;59983;52.010;5.420;2023-05-10T08:01:45;13.90;;;9.95;;
72109;SDS011;59983;52.010;5.420;2023-05-10T08:04:11;11.50;;;9.40;;
72109;SDS011;59983;52.010;5.420;2023-05-10T08:06:39;10.10;;;9.02;;
72109;SDS011;59983;52.010;5.420;2023-05-10T08:09:06;12.38;;;9.43;;
72109;SDS011;59983;52.010;5.420;2023-05-10T08:11:33;13.63;;;10.77;;
72109;SDS011;59983;52.010;5.420;2023-05-10T08:14:00;12.38;;;10.35;;
72109;SDS011;59983;52.010;5.420;2023-05-10T08:16:27;12.48;;;10.73;;
72109;SDS011;59983;52.010;5.420;2023-05-10T08:18:55;14.50;;;10.88;;
72109;SDS011;59983;52.010;5.420;2023-05-10T08:21:21;20.00;;;11.75;;
72109;SDS011;59983;52.010;5.420;2023-05-10T08:23:48;16.07;;;11.07;;
72109;SDS011;59983;52.010;5.420;2023-05-10T08:26:15;14.73;;;10.13;;
72109;SDS011;59983;52.010;5.420;2023-05-10T08:28:41;13.45;;;10.15;;
72109;SDS011;59983;52.010;5.420;2023-05-10T08:31:08;14.43;;;9.85;;
72109;SDS011;59983;52.010;5.420;2023-05-10T08:33:35;11.88;;;10.15;;
72109;SDS011;59983;52.010;5.420;2023-05-10T08:36:01;13.97;;;10.07;;
72109;SDS011;59983;52.010;5.420;2023-05-10T08:38:28;16.17;;;10.48;;
72109;SDS011;59983;52.010;5.420;2023-05-10T08:40:55;15.98;;;10.85;;
72109;SDS011;59983;52.010;5.420;2023-05-10T08:43:28;15.90;;;10.45;;
72109;SDS011;59983;52.010;5.420;2023-05-10T08:45:56;11.68;;;9.93;;
72109;SDS011;59983;52.010;5.420;2023-05-10T08:48:26;14.07;;;10.10;;
72109;SDS011;59983;52.010;5.420;2023-05-10T08:50:55;13.60;;;10.93;;
72109;SDS011;59983;52.010;5.420;2023-05-10T08:53:24;11.95;;;10.35;;
72109;SDS011;59983;52.010;5.420;2023-05-10T08:55:53;14.35;;;10.48;;
72109;SDS011;59983;52.010;5.420;2023-05-10T08:58:20;18.48;;;9.50;;
72109;SDS011;59983;52.010;5.420;2023-05-10T09:00:48;15.70;;;10.67;;
72109;SDS011;59983;52.010;5.420;2023-05-10T09:03:16;13.70;;;9.68;;
72109;SDS011;59983;52.010;5.420;2023-05-10T09:05:43;14.13;;;10.30;;
72109;SDS011;59983;52.010;5.420;2023-05-10T09:08:11;14.73;;;11.10;;
72109;SDS011;59983;52.010;5.420;2023-05-10T09:10:39;11.40;;;9.48;;
72109;SDS011;59983;52.010;5.420;2023-05-10T09:13:06;12.40;;;10.43;;
72109;SDS011;59983;52.010;5.420;2023-05-10T09:15:35;11.95;;;10.30;;
72109;SDS011;59983;52.010;5.420;2023-05-10T09:18:02;13.35;;;10.82;;
72109;SDS011;59983;52.010;5.420;2023-05-10T09:20:29;17.33;;;10.82;;
72109;SDS011;59983;52.010;5.420;2023-05-10T09:22:56;13.75;;;10.38;;
72109;SDS011;59983;52.010;5.420;2023-05-10T09:25:22;16.93;;;11.40;;
72109;SDS011;59983;52.010;5.420;2023-05-10T09:27:49;12.45;;;10.23;;
72109;SDS011;59983;52.010;5.420;2023-05-10T09:30:17;16.10;;;11.30;;
72109;SDS011;59983;52.010;5.420;2023-05-10T09:32:50;15.15;;;11.25;;
72109;SDS011;59983;52.010;5.420;2023-05-10T09:35:18;16.77;;;11.18;;
72109;SDS011;59983;52.010;5.420;2023-05-10T09:37:47;16.07;;;11.03;;
72109;SDS011;59983;52.010;5.420;2023-05-10T09:40:17;13.63;;;10.52;;
72109;SDS011;59983;52.010;5.420;2023-05-10T09:45:22;13.70;;;11.77;;
72109;SDS011;59983;52.010;5.420;2023-05-10T09:47:49;13.00;;;10.88;;
72109;SDS011;59983;52.010;5.420;2023-05-10T09:50:16;12.50;;;10.20;;
72109;SDS011;59983;52.010;5.420;2023-05-10T09:58:05;11.95;;;10.10;;
72109;SDS011;59983;52.010;5.420;2023-05-10T10:00:37;13.82;;;9.73;;
72109;SDS011;59983;52.010;5.420;2023-05-10T10:03:04;15.90;;;10.13;;
72109;SDS011;59983;52.010;5.420;2023-05-10T10:05:33;13.13;;;10.00;;
72109;SDS011;59983;52.010;5.420;2023-05-10T10:08:04;12.70;;;10.60;;
72109;SDS011;59983;52.010;5.420;2023-05-10T10:10:32;13.00;;;9.57;;
72109;SDS011;59983;52.010;5.420;2023-05-10T10:12:59;13.93;;;9.75;;
72109;SDS011;59983;52.010;5.420;2023-05-10T10:15:26;13.43;;;10.80;;
72109;SDS011;59983;52.010;5.420;2023-05-10T10:17:53;14.25;;;9.73;;
72109;SDS011;59983;52.010;5.420;2023-05-10T10:20:21;13.57;;;9.45;;
72109;SDS011;59983;52.010;5.420;2023-05-10T10:22:48;10.48;;;9.27;;
72109;SDS011;59983;52.010;5.420;2023-05-10T10:25:16;12.18;;;9.95;;
72109;SDS011;59983;52.010;5.420;2023-05-10T10:35:54;11.70;;;9.05;;
72109;SDS011;59983;52.010;5.420;2023-05-10T10:38:23;11.38;;;9.85;;
72109;SDS011;59983;52.010;5.420;2023-05-10T10:41:09;11.30;;;9.63;;
72109;SDS011;59983;52.010;5.420;2023-05-10T10:49:32;12.20;;;9.05;;
72109;SDS011;59983;52.010;5.420;2023-05-10T10:52:15;11.82;;;9.70;;
72109;SDS011;59983;52.010;5.420;2023-05-10T10:54:51;14.90;;;9.70;;
72109;SDS011;59983;52.010;5.420;2023-05-10T10:57:20;10.50;;;8.63;;
72109;SDS011;59983;52.010;5.420;2023-05-10T10:59:47;14.30;;;9.35;;
72109;SDS011;59983;52.010;5.420;2023-05-10T11:07:51;10.43;;;8.07;;
72109;SDS011;59983;52.010;5.420;2023-05-10T11:10:20;9.93;;;8.52;;
72109;SDS011;59983;52.010;5.420;2023-05-10T11:12:58;10.75;;;8.13;;
72109;SDS011;59983;52.010;5.420;2023-05-10T11:15:33;10.02;;;8.30;;
72109;SDS011;59983;52.010;5.420;2023-05-10T11:18:17;8.88;;;7.72;;
72109;SDS011;59983;52.010;5.420;2023-05-10T11:21:19;8.70;;;7.87;;
72109;SDS011;59983;52.010;5.420;2023-05-10T11:26:07;10.35;;;7.63;;
72109;SDS011;59983;52.010;5.420;2023-05-10T11:28:47;9.77;;;7.82;;
72109;SDS011;59983;52.010;5.420;2023-05-10T11:31:15;9.23;;;7.68;;
72109;SDS011;59983;52.010;5.420;2023-05-10T11:33:49;8.73;;;7.83;;
72109;SDS011;59983;52.010;5.420;2023-05-10T11:36:18;8.55;;;7.65;;
72109;SDS011;59983;52.010;5.420;2023-05-10T11:38:47;9.27;;;8.02;;
72109;SDS011;59983;52.010;5.420;2023-05-10T11:41:15;8.30;;;7.40;;
72109;SDS011;59983;52.010;5.420;2023-05-10T11:43:43;8.07;;;7.28;;
72109;SDS011;59983;52.010;5.420;2023-05-10T11:46:13;7.17;;;6.57;;
72109;SDS011;59983;52.010;5.420;2023-05-10T11:48:40;7.45;;;6.75;;
72109;SDS011;59983;52.010;5.420;2023-05-10T11:51:10;7.20;;;6.50;;
72109;SDS011;59983;52.010;5.420;2023-05-10T11:53:37;7.55;;;6.82;;
72109;SDS011;59983;52.010;5.420;2023-05-10T11:56:10;7.03;;;6.32;;
72109;SDS011;59983;52.010;5.420;2023-05-10T11:58:37;6.33;;;5.83;;
72109;SDS011;59983;52.010;5.420;2023-05-10T12:01:06;8.02;;;4.95;;
72109;SDS011;59983;52.010;5.420;2023-05-10T12:03:34;5.32;;;4.90;;
72109;SDS011;59983;52.010;5.420;2023-05-10T12:06:01;5.60;;;4.97;;
72109;SDS011;59983;52.010;5.420;2023-05-10T12:08:29;6.90;;;4.90;;
72109;SDS011;59983;52.010;5.420;2023-05-10T12:11:07;5.37;;;4.87;;
72109;SDS011;59983;52.010;5.420;2023-05-10T12:13:42;5.80;;;5.22;;
72109;SDS011;59983;52.010;5.420;2023-05-10T12:16:16;6.20;;;5.60;;
72109;SDS011;59983;52.010;5.420;2023-05-10T12:18:44;5.90;;;5.40;;
72109;SDS011;59983;52.010;5.420;2023-05-10T12:21:14;6.63;;;5.65;;
72109;SDS011;59983;52.010;5.420;2023-05-10T12:23:41;6.60;;;5.57;;
72109;SDS011;59983;52.010;5.420;2023-05-10T12:26:11;7.97;;;5.57;;
72109;SDS011;59983;52.010;5.420;2023-05-10T12:28:37;7.68;;;5.32;;
72109;SDS011;59983;52.010;5.420;2023-05-10T12:31:05;6.00;;;5.45;;
72109;SDS011;59983;52.010;5.420;2023-05-10T12:33:37;9.05;;;5.43;;
72109;SDS011;59983;52.010;5.420;2023-05-10T12:36:05;6.17;;;5.13;;
72109;SDS011;59983;52.010;5.420;2023-05-10T12:38:33;6.18;;;5.65;;
72109;SDS011;59983;52.010;5.420;2023-05-10T12:41:05;8.00;;;5.80;;
72109;SDS011;59983;52.010;5.420;2023-05-10T12:43:33;6.53;;;6.03;;
72109;SDS011;59983;52.010;5.420;2023-05-10T12:46:04;8.38;;;6.95;;
72109;SDS011;59983;52.010;5.420;2023-05-10T12:48:32;10.33;;;9.37;;
72109;SDS011;59983;52.010;5.420;2023-05-10T12:51:00;12.30;;;11.02;;
72109;SDS011;59983;52.010;5.420;2023-05-10T12:53:27;17.20;;;11.73;;
72109;SDS011;59983;52.010;5.420;2023-05-10T12:55:54;11.45;;;10.00;;
72109;SDS011;59983;52.010;5.420;2023-05-10T12:58:21;12.05;;;8.38;;
72109;SDS011;59983;52.010;5.420;2023-05-10T13:00:52;8.07;;;7.40;;
72109;SDS011;59983;52.010;5.420;2023-05-10T13:03:19;9.98;;;8.13;;
72109;SDS011;59983;52.010;5.420;2023-05-10T13:05:46;8.32;;;7.72;;
72109;SDS011;59983;52.010;5.420;2023-05-10T13:08:12;7.03;;;6.53;;
72109;SDS011;59983;52.010;5.420;2023-05-10T13:10:39;6.93;;;6.43;;
72109;SDS011;59983;52.010;5.420;2023-05-10T13:13:06;7.87;;;7.27;;
72109;SDS011;59983;52.010;5.420;2023-05-10T13:15:34;8.50;;;7.75;;
72109;SDS011;59983;52.010;5.420;2023-05-10T13:18:01;10.02;;;9.13;;
72109;SDS011;59983;52.010;5.420;2023-05-10T13:20:28;9.95;;;9.25;;
72109;SDS011;59983;52.010;5.420;2023-05-10T13:22:54;10.45;;;9.60;;
72109;SDS011;59983;52.010;5.420;2023-05-10T13:25:21;12.37;;;11.07;;
72109;SDS011;59983;52.010;5.420;2023-05-10T13:27:47;14.93;;;13.63;;
72109;SDS011;59983;52.010;5.420;2023-05-10T13:30:14;13.35;;;12.15;;
72109;SDS011;59983;52.010;5.420;2023-05-10T13:32:41;13.27;;;11.98;;
72109;SDS011;59983;52.010;5.420;2023-05-10T13:35:08;12.48;;;11.18;;
72109;SDS011;59983;52.010;5.420;2023-05-10T13:37:34;18.07;;;11.53;;
72109;SDS011;59983;52.010;5.420;2023-05-10T13:40:03;12.15;;;10.90;;
72109;SDS011;59983;52.010;5.420;2023-05-10T13:42:31;14.00;;;11.27;;
72109;SDS011;59983;52.010;5.420;2023-05-10T13:44:59;18.02;;;11.13;;
72109;SDS011;59983;52.010;5.420;2023-05-10T13:47:28;15.80;;;11.63;;
72109;SDS011;59983;52.010;5.420;2023-05-10T13:49:54;12.87;;;11.40;;
72109;SDS011;59983;52.010;5.420;2023-05-10T13:52:21;11.93;;;10.18;;
72109;SDS011;59983;52.010;5.420;2023-05-10T13:54:47;11.77;;;9.80;;
72109;SDS011;59983;52.010;5.420;2023-05-10T13:57:14;13.30;;;11.02;;
72109;SDS011;59983;52.010;5.420;2023-05-10T13:59:42;15.40;;;10.40;;
72109;SDS011;59983;52.010;5.420;2023-05-10T14:02:09;12.70;;;10.03;;
72109;SDS011;59983;52.010;5.420;2023-05-10T14:04:38;14.48;;;10.25;;
72109;SDS011;59983;52.010;5.420;2023-05-10T14:07:05;11.63;;;9.57;;
72109;SDS011;59983;52.010;5.420;2023-05-10T14:09:31;11.23;;;9.68;;
72109;SDS011;59983;52.010;5.420;2023-05-10T14:11:58;13.10;;;9.77;;
72109;SDS011;59983;52.010;5.420;2023-05-10T14:14:24;19.80;;;9.90;;
72109;SDS011;59983;52.010;5.420;2023-05-10T14:16:51;13.38;;;9.60;;
72109;SDS011;59983;52.010;5.420;2023-05-10T14:19:18;15.73;;;10.45;;
72109;SDS011;59983;52.010;5.420;2023-05-10T14:21:45;13.25;;;10.85;;
72109;SDS011;59983;52.010;5.420;2023-05-10T14:24:11;18.73;;;10.48;;
72109;SDS011;59983;52.010;5.420;2023-05-10T14:26:38;16.07;;;10.30;;
72109;SDS011;59983;52.010;5.420;2023-05-10T14:29:04;15.18;;;11.20;;
72109;SDS011;59983;52.010;5.420;2023-05-10T14:31:31;15.40;;;12.15;;
72109;SDS011;59983;52.010;5.420;2023-05-10T14:33:58;19.30;;;11.02;;
72109;SDS011;59983;52.010;5.420;2023-05-10T14:36:25;19.40;;;11.77;;
72109;SDS011;59983;52.010;5.420;2023-05-10T14:38:52;19.83;;;11.93;;
72109;SDS011;59983;52.010;5.420;2023-05-10T14:41:18;16.60;;;11.55;;
72109;SDS011;59983;52.010;5.420;2023-05-10T14:43:45;20.25;;;12.13;;
72109;SDS011;59983;52.010;5.420;2023-05-10T14:46:12;15.93;;;11.77;;
72109;SDS011;59983;52.010;5.420;2023-05-10T14:48:38;16.20;;;11.38;;
72109;SDS011;59983;52.010;5.420;2023-05-10T14:51:05;19.13;;;12.83;;
72109;SDS011;59983;52.010;5.420;2023-05-10T14:53:32;16.05;;;12.02;;
72109;SDS011;59983;52.010;5.420;2023-05-10T14:55:59;17.75;;;11.50;;
72109;SDS011;59983;52.010;5.420;2023-05-10T14:58:27;14.30;;;11.50;;
72109;SDS011;59983;52.010;5.420;2023-05-10T15:00:54;17.48;;;12.13;;
72109;SDS011;59983;52.010;5.420;2023-05-10T15:03:20;16.23;;;11.73;;
72109;SDS011;59983;52.010;5.420;2023-05-10T15:05:47;14.48;;;9.98;;
72109;SDS011;59983;52.010;5.420;2023-05-10T15:08:14;15.27;;;11.60;;
72109;SDS011;59983;52.010;5.420;2023-05-10T15:10:40;15.65;;;11.70;;
72109;SDS011;59983;52.010;5.420;2023-05-10T15:13:07;13.65;;;10.38;;
72109;SDS011;59983;52.010;5.420;2023-05-10T15:15:34;17.23;;;11.40;;
72109;SDS011;59983;52.010;5.420;2023-05-10T15:18:00;18.33;;;10.57;;